Aviation Digital Data Service (ADDS)

Output produced by METARs form (2315 UTC 18 August 2019)
found at http://www.aviationweather.gov/metar/data/
 
METAR text: MYGF 182300Z 08005KT 9999 FEW022TCU 31/24 A3006
Conditions at: MYGF (FREEPORT INTL A , BS) observed 2300 UTC 18 August 2019
Temperature: 31.0°C (88°F)
Dewpoint: 24.0°C (75°F) [RH = 66%]
Pressure (altimeter): 30.06 inches Hg (1018.0 mb)
Winds: from the E (80 degrees) at 6 MPH (5 knots; 2.6 m/s)
Visibility: 6 or more miles (10+ km)
Ceiling: at least 12,000 feet AGL
Clouds: few clouds at 2200 feet AGL
Weather: no significant weather observed at this time

METAR text: MYGF 182200Z 14006KT 9999 FEW020CB 30/23 A3006
Conditions at: MYGF (FREEPORT INTL A , BS) observed 2200 UTC 18 August 2019
Temperature: 30.0°C (86°F)
Dewpoint: 23.0°C (73°F) [RH = 66%]
Pressure (altimeter): 30.06 inches Hg (1018.0 mb)
Winds: from the SE (140 degrees) at 7 MPH (6 knots; 3.1 m/s)
Visibility: 6 or more miles (10+ km)
Ceiling: at least 12,000 feet AGL
Clouds: few clouds at 2000 feet AGL
Weather: no significant weather observed at this time

METAR text: MYGF 182100Z 12007KT 060V150 9999 VCSH FEW018CB SCT035 32/25 A3007
Conditions at: MYGF (FREEPORT INTL A , BS) observed 2100 UTC 18 August 2019
Temperature: 32.0°C (90°F)
Dewpoint: 25.0°C (77°F) [RH = 67%]
Pressure (altimeter): 30.07 inches Hg (1018.4 mb)
Winds: from the ESE (120 degrees) at 8 MPH (7 knots; 3.6 m/s)
Visibility: 6 or more miles (10+ km)
Ceiling: at least 12,000 feet AGL
Clouds: few clouds at 1800 feet AGL
scattered clouds at 3500 feet AGL
Weather: VCSH  (showers in vicinity)

METAR text: MYGF 182000Z 13005KT 9999 VCSH FEW020CB SCT035 33/24 A3008
Conditions at: MYGF (FREEPORT INTL A , BS) observed 2000 UTC 18 August 2019
Temperature: 33.0°C (91°F)
Dewpoint: 24.0°C (75°F) [RH = 59%]
Pressure (altimeter): 30.08 inches Hg (1018.7 mb)
Winds: from the SE (130 degrees) at 6 MPH (5 knots; 2.6 m/s)
Visibility: 6 or more miles (10+ km)
Ceiling: at least 12,000 feet AGL
Clouds: few clouds at 2000 feet AGL
scattered clouds at 3500 feet AGL
Weather: VCSH  (showers in vicinity)

METAR text: MYGF 181929Z 05005KT 9999 VCSH FEW020TCU SCT250 32/23 A3009 RETS
Conditions at: MYGF (FREEPORT INTL A , BS) observed 1929 UTC 18 August 2019
Temperature: 32.0°C (90°F)
Dewpoint: 23.0°C (73°F) [RH = 59%]
Pressure (altimeter): 30.09 inches Hg (1019.0 mb)
Winds: from the NE (50 degrees) at 6 MPH (5 knots; 2.6 m/s)
Visibility: 6 or more miles (10+ km)
Ceiling: at least 12,000 feet AGL
Clouds: few clouds at 2000 feet AGL
scattered clouds at 25000 feet AGL
Weather: VCSH  (showers in vicinity)

METAR text: MYGF 181900Z 10007KT 9999 TS VCSH FEW015CB SCT030 BKN100 30/23 A3010
Conditions at: MYGF (FREEPORT INTL A , BS) observed 1900 UTC 18 August 2019
Temperature: 30.0°C (86°F)
Dewpoint: 23.0°C (73°F) [RH = 66%]
Pressure (altimeter): 30.10 inches Hg (1019.4 mb)
Winds: from the E (100 degrees) at 8 MPH (7 knots; 3.6 m/s)
Visibility: 6 or more miles (10+ km)
Ceiling: 10000 feet AGL
Clouds: few clouds at 1500 feet AGL
scattered clouds at 3000 feet AGL
broken clouds at 10000 feet AGL
Weather: TS VCSH  (thunderstorm, showers in vicinity)

METAR text: MYGF 181830Z 06013KT 9999 VCTS FEW015CB SCT030 BKN250 31/25 A3010 FC DSIPTD
Conditions at: MYGF (FREEPORT INTL A , BS) observed 1830 UTC 18 August 2019
Temperature: 31.0°C (88°F)
Dewpoint: 25.0°C (77°F) [RH = 71%]
Pressure (altimeter): 30.10 inches Hg (1019.4 mb)
Winds: from the ENE (60 degrees) at 15 MPH (13 knots; 6.7 m/s)
Visibility: 6 or more miles (10+ km)
Ceiling: 25000 feet AGL
Clouds: few clouds at 1500 feet AGL
scattered clouds at 3000 feet AGL
broken clouds at 25000 feet AGL
Weather: VCTS FC DS  (thunderstorm in vicinity, funnel cloud, duststorm)

METAR text: MYGF 181809Z 13008KT 9999 FC FEW018CB SCT035 33/25 A3011 FCB08 N AND NE MOV SW
Conditions at: MYGF (FREEPORT INTL A , BS) observed 1809 UTC 18 August 2019
Temperature: 33.0°C (91°F)
Dewpoint: 25.0°C (77°F) [RH = 63%]
Pressure (altimeter): 30.11 inches Hg (1019.7 mb)
Winds: from the SE (130 degrees) at 9 MPH (8 knots; 4.1 m/s)
Visibility: 6 or more miles (10+ km)
Ceiling: at least 12,000 feet AGL
Clouds: few clouds at 1800 feet AGL
scattered clouds at 3500 feet AGL
Weather: FC FC  (funnel cloud, funnel cloud)

METAR text: MYGF 181800Z 11007KT 9999 FEW018CB SCT035 33/25 A3011
Conditions at: MYGF (FREEPORT INTL A , BS) observed 1800 UTC 18 August 2019
Temperature: 33.0°C (91°F)
Dewpoint: 25.0°C (77°F) [RH = 63%]
Pressure (altimeter): 30.11 inches Hg (1019.7 mb)
Winds: from the ESE (110 degrees) at 8 MPH (7 knots; 3.6 m/s)
Visibility: 6 or more miles (10+ km)
Ceiling: at least 12,000 feet AGL
Clouds: few clouds at 1800 feet AGL
scattered clouds at 3500 feet AGL
Weather: no significant weather observed at this time

METAR text: MYGF 181700Z 12007KT 9999 FEW018CB 33/23 A3012
Conditions at: MYGF (FREEPORT INTL A , BS) observed 1700 UTC 18 August 2019
Temperature: 33.0°C (91°F)
Dewpoint: 23.0°C (73°F) [RH = 56%]
Pressure (altimeter): 30.12 inches Hg (1020.1 mb)
Winds: from the ESE (120 degrees) at 8 MPH (7 knots; 3.6 m/s)
Visibility: 6 or more miles (10+ km)
Ceiling: at least 12,000 feet AGL
Clouds: few clouds at 1800 feet AGL
Weather: no significant weather observed at this time

METAR text: MYGF 181600Z 13009KT 9999 SCT025 32/25 A3011
Conditions at: MYGF (FREEPORT INTL A , BS) observed 1600 UTC 18 August 2019
Temperature: 32.0°C (90°F)
Dewpoint: 25.0°C (77°F) [RH = 67%]
Pressure (altimeter): 30.11 inches Hg (1019.7 mb)
Winds: from the SE (130 degrees) at 10 MPH (9 knots; 4.6 m/s)
Visibility: 6 or more miles (10+ km)
Ceiling: at least 12,000 feet AGL
Clouds: scattered clouds at 2500 feet AGL
Weather: no significant weather observed at this time

METAR text: MYGF 181500Z 29003KT 260V330 9999 SCT020 30/25 A3011 RESH
Conditions at: MYGF (FREEPORT INTL A , BS) observed 1500 UTC 18 August 2019
Temperature: 30.0°C (86°F)
Dewpoint: 25.0°C (77°F) [RH = 75%]
Pressure (altimeter): 30.11 inches Hg (1019.7 mb)
Winds: from the WNW (290 degrees) at 3 MPH (3 knots; 1.5 m/s)
Visibility: 6 or more miles (10+ km)
Ceiling: at least 12,000 feet AGL
Clouds: scattered clouds at 2000 feet AGL
Weather: no significant weather observed at this time

METAR text: MYGF 181400Z 09004KT 050V140 9999 SCT025 30/25 A3010
Conditions at: MYGF (FREEPORT INTL A , BS) observed 1400 UTC 18 August 2019
Temperature: 30.0°C (86°F)
Dewpoint: 25.0°C (77°F) [RH = 75%]
Pressure (altimeter): 30.10 inches Hg (1019.4 mb)
Winds: from the E (90 degrees) at 5 MPH (4 knots; 2.1 m/s)
Visibility: 6 or more miles (10+ km)
Ceiling: at least 12,000 feet AGL
Clouds: scattered clouds at 2500 feet AGL
Weather: no significant weather observed at this time

METAR text: MYGF 181300Z 09003KT 010V120 9999 FEW025 31/25 A3009
Conditions at: MYGF (FREEPORT INTL A , BS) observed 1300 UTC 18 August 2019
Temperature: 31.0°C (88°F)
Dewpoint: 25.0°C (77°F) [RH = 71%]
Pressure (altimeter): 30.09 inches Hg (1019.0 mb)
Winds: from the E (90 degrees) at 3 MPH (3 knots; 1.5 m/s)
Visibility: 6 or more miles (10+ km)
Ceiling: at least 12,000 feet AGL
Clouds: few clouds at 2500 feet AGL
Weather: no significant weather observed at this time

METAR text: MYGF 181200Z VRB02KT 9999 FEW025 27/25 A3008
Conditions at: MYGF (FREEPORT INTL A , BS) observed 1200 UTC 18 August 2019
Temperature: 27.0°C (81°F)
Dewpoint: 25.0°C (77°F) [RH = 89%]
Pressure (altimeter): 30.08 inches Hg (1018.7 mb)
Winds: variable direction winds at 2 MPH (2 knots; 1.0 m/s)
Visibility: 6 or more miles (10+ km)
Ceiling: at least 12,000 feet AGL
Clouds: few clouds at 2500 feet AGL
Weather: no significant weather observed at this time

METAR text: MYGF 181100Z VRB02KT 9999 FEW025 26/24 A3008
Conditions at: MYGF (FREEPORT INTL A , BS) observed 1100 UTC 18 August 2019
Temperature: 26.0°C (79°F)
Dewpoint: 24.0°C (75°F) [RH = 89%]
Pressure (altimeter): 30.08 inches Hg (1018.7 mb)
Winds: variable direction winds at 2 MPH (2 knots; 1.0 m/s)
Visibility: 6 or more miles (10+ km)
Ceiling: at least 12,000 feet AGL
Clouds: few clouds at 2500 feet AGL
Weather: no significant weather observed at this time

METAR text: MYGF 180000Z 14005KT 9999 FEW018CB SCT250 30/25 A3008
Conditions at: MYGF (FREEPORT INTL A , BS) observed 0000 UTC 18 August 2019
Temperature: 30.0°C (86°F)
Dewpoint: 25.0°C (77°F) [RH = 75%]
Pressure (altimeter): 30.08 inches Hg (1018.7 mb)
Winds: from the SE (140 degrees) at 6 MPH (5 knots; 2.6 m/s)
Visibility: 6 or more miles (10+ km)
Ceiling: at least 12,000 feet AGL
Clouds: few clouds at 1800 feet AGL
scattered clouds at 25000 feet AGL
Weather: no significant weather observed at this time

METAR text: MYGF 172300Z 16006KT 9999 FEW018CB SCT250 31/24 A3007
Conditions at: MYGF (FREEPORT INTL A , BS) observed 2300 UTC 17 August 2019
Temperature: 31.0°C (88°F)
Dewpoint: 24.0°C (75°F) [RH = 66%]
Pressure (altimeter): 30.07 inches Hg (1018.4 mb)
Winds: from the SSE (160 degrees) at 7 MPH (6 knots; 3.1 m/s)
Visibility: 6 or more miles (10+ km)
Ceiling: at least 12,000 feet AGL
Clouds: few clouds at 1800 feet AGL
scattered clouds at 25000 feet AGL
Weather: no significant weather observed at this time

METAR text: MYGF 172200Z 18007KT 140V230 9999 FEW018CB 31/24 A3007
Conditions at: MYGF (FREEPORT INTL A , BS) observed 2200 UTC 17 August 2019
Temperature: 31.0°C (88°F)
Dewpoint: 24.0°C (75°F) [RH = 66%]
Pressure (altimeter): 30.07 inches Hg (1018.4 mb)
Winds: from the S (180 degrees) at 8 MPH (7 knots; 3.6 m/s)
Visibility: 6 or more miles (10+ km)
Ceiling: at least 12,000 feet AGL
Clouds: few clouds at 1800 feet AGL
Weather: no significant weather observed at this time

METAR text: MYGF 172100Z 16008KT 140V200 9999 SCT025 31/25 A3007
Conditions at: MYGF (FREEPORT INTL A , BS) observed 2100 UTC 17 August 2019
Temperature: 31.0°C (88°F)
Dewpoint: 25.0°C (77°F) [RH = 71%]
Pressure (altimeter): 30.07 inches Hg (1018.4 mb)
Winds: from the SSE (160 degrees) at 9 MPH (8 knots; 4.1 m/s)
Visibility: 6 or more miles (10+ km)
Ceiling: at least 12,000 feet AGL
Clouds: scattered clouds at 2500 feet AGL
Weather: no significant weather observed at this time

METAR text: MYGF 172000Z 17008KT 130V200 9999 SCT025 31/25 A3008
Conditions at: MYGF (FREEPORT INTL A , BS) observed 2000 UTC 17 August 2019
Temperature: 31.0°C (88°F)
Dewpoint: 25.0°C (77°F) [RH = 71%]
Pressure (altimeter): 30.08 inches Hg (1018.7 mb)
Winds: from the S (170 degrees) at 9 MPH (8 knots; 4.1 m/s)
Visibility: 6 or more miles (10+ km)
Ceiling: at least 12,000 feet AGL
Clouds: scattered clouds at 2500 feet AGL
Weather: no significant weather observed at this time

METAR text: MYGF 171900Z 19008KT 150V230 9999 SCT025TCU 32/25 A3008
Conditions at: MYGF (FREEPORT INTL A , BS) observed 1900 UTC 17 August 2019
Temperature: 32.0°C (90°F)
Dewpoint: 25.0°C (77°F) [RH = 67%]
Pressure (altimeter): 30.08 inches Hg (1018.7 mb)
Winds: from the S (190 degrees) at 9 MPH (8 knots; 4.1 m/s)
Visibility: 6 or more miles (10+ km)
Ceiling: at least 12,000 feet AGL
Clouds: scattered clouds at 2500 feet AGL
Weather: no significant weather observed at this time

METAR text: MYGF 171800Z 17012KT 130V210 9999 SCT030 33/27 A3010
Conditions at: MYGF (FREEPORT INTL A , BS) observed 1800 UTC 17 August 2019
Temperature: 33.0°C (91°F)
Dewpoint: 27.0°C (81°F) [RH = 71%]
Pressure (altimeter): 30.10 inches Hg (1019.4 mb)
Winds: from the S (170 degrees) at 14 MPH (12 knots; 6.2 m/s)
Visibility: 6 or more miles (10+ km)
Ceiling: at least 12,000 feet AGL
Clouds: scattered clouds at 3000 feet AGL
Weather: no significant weather observed at this time

METAR text: MYGF 171700Z 21011KT 120V210 9999 FEW018CB SCT030 32/25 A3012
Conditions at: MYGF (FREEPORT INTL A , BS) observed 1700 UTC 17 August 2019
Temperature: 32.0°C (90°F)
Dewpoint: 25.0°C (77°F) [RH = 67%]
Pressure (altimeter): 30.12 inches Hg (1020.1 mb)
Winds: from the SSW (210 degrees) at 13 MPH (11 knots; 5.7 m/s)
Visibility: 6 or more miles (10+ km)
Ceiling: at least 12,000 feet AGL
Clouds: few clouds at 1800 feet AGL
scattered clouds at 3000 feet AGL
Weather: no significant weather observed at this time

METAR text: MYGF 171600Z 16007KT 120V190 9999 FEW030 32/25 A3012
Conditions at: MYGF (FREEPORT INTL A , BS) observed 1600 UTC 17 August 2019
Temperature: 32.0°C (90°F)
Dewpoint: 25.0°C (77°F) [RH = 67%]
Pressure (altimeter): 30.12 inches Hg (1020.1 mb)
Winds: from the SSE (160 degrees) at 8 MPH (7 knots; 3.6 m/s)
Visibility: 6 or more miles (10+ km)
Ceiling: at least 12,000 feet AGL
Clouds: few clouds at 3000 feet AGL
Weather: no significant weather observed at this time

METAR text: MYGF 171500Z 19007KT 130V190 9999 FEW030 32/25 A3011
Conditions at: MYGF (FREEPORT INTL A , BS) observed 1500 UTC 17 August 2019
Temperature: 32.0°C (90°F)
Dewpoint: 25.0°C (77°F) [RH = 67%]
Pressure (altimeter): 30.11 inches Hg (1019.7 mb)
Winds: from the S (190 degrees) at 8 MPH (7 knots; 3.6 m/s)
Visibility: 6 or more miles (10+ km)
Ceiling: at least 12,000 feet AGL
Clouds: few clouds at 3000 feet AGL
Weather: no significant weather observed at this time

METAR text: MYGF 171400Z 18008KT 9999 FEW025 SCT120 30/24 A3011
Conditions at: MYGF (FREEPORT INTL A , BS) observed 1400 UTC 17 August 2019
Temperature: 30.0°C (86°F)
Dewpoint: 24.0°C (75°F) [RH = 70%]
Pressure (altimeter): 30.11 inches Hg (1019.7 mb)
Winds: from the S (180 degrees) at 9 MPH (8 knots; 4.1 m/s)
Visibility: 6 or more miles (10+ km)
Ceiling: at least 12,000 feet AGL
Clouds: few clouds at 2500 feet AGL
scattered clouds at 12000 feet AGL
Weather: no significant weather observed at this time

METAR text: MYGF 171300Z COR 11005KT 9999 FEW020 SCT120 28/25 A3010
Conditions at: MYGF (FREEPORT INTL A , BS) observed 1300 UTC 17 August 2019
Temperature: 28.0°C (82°F)
Dewpoint: 25.0°C (77°F) [RH = 84%]
Pressure (altimeter): 30.10 inches Hg (1019.4 mb)
Winds: from the ESE (110 degrees) at 6 MPH (5 knots; 2.6 m/s)
Visibility: 6 or more miles (10+ km)
Ceiling: at least 12,000 feet AGL
Clouds: few clouds at 2000 feet AGL
scattered clouds at 12000 feet AGL
Weather: no significant weather observed at this time

METAR text: MYGF 171200Z 08006KT 9999 FEW018CB SCT120 BKN220 26/24 A3009
Conditions at: MYGF (FREEPORT INTL A , BS) observed 1200 UTC 17 August 2019
Temperature: 26.0°C (79°F)
Dewpoint: 24.0°C (75°F) [RH = 89%]
Pressure (altimeter): 30.09 inches Hg (1019.0 mb)
Winds: from the E (80 degrees) at 7 MPH (6 knots; 3.1 m/s)
Visibility: 6 or more miles (10+ km)
Ceiling: 22000 feet AGL
Clouds: few clouds at 1800 feet AGL
scattered clouds at 12000 feet AGL
broken clouds at 22000 feet AGL
Weather: no significant weather observed at this time

Forecast for: MYGF (FREEPORT INTL A , BS)
Text: TAF MYGF 182300Z 1900/1924 11006KT 9999 VCSH FEW020CB SCT035
Forecast period: 0000 UTC 19 August 2019 to 0000 UTC 20 August 2019
Forecast type: FROM: standard forecast or significant change
Winds: from the ESE (110 degrees) at 7 MPH (6 knots; 3.1 m/s)
Visibility: 6 or more miles 10+ km)
Ceiling: at least 12,000 feet AGL
Clouds: few clouds at 2000 feet AGL
scattered clouds at 3500 feet AGL
Weather: VCSH  (showers in vicinity)
Text: PROB30
Forecast period: 1400 to 2300 UTC 19 August 2019
Forecast type: TEMPORARY: The following changes expected for less than half the time period
Winds: from the E (80 degrees) at 7 MPH (6 knots; 3.1 m/s)
gusting to 18 MPH (16 knots; 8.2 m/s)
Visibility: 2.98 miles (4.80 km)
Ceiling: 3000 feet AGL
Clouds: scattered clouds at 1500 feet AGL
broken clouds at 3000 feet AGL
Weather: TSRA  (rain associated with thunderstorm(s))